AAL2727 KPHL-KCLT
Flight info
| Callsign | AAL2727 |
|---|---|
| Flight time | 1h 8m |
| Altitude | 34000 |
| Route | STOEN Q75 GVE AIROW CHSLY6 |
| Aircraft | A320/M-SDE3FGHIRWY/LB1 |
Departure
| Time | 2026-05-06 00:47 |
|---|---|
| Airport | Philadelphia International Airport (KPHL) |
Arrival
| Time | 2026-05-06 01:55 |
|---|---|
| Airport | Charlotte Douglas International Airport (KCLT) |
| Time | Latitude | Longitude | Altitude | Speed | Heading |
|---|---|---|---|---|---|
| 2026-05-06 00:25 | 39.87540 | -75.24436 | 25 ft | 0 kts | 80° |
| 2026-05-06 00:35 | 39.87539 | -75.24444 | 25 ft | 2 kts | 80° |
| 2026-05-06 00:35 | 39.87533 | -75.24466 | 29 ft | 3 kts | 44° |
| 2026-05-06 00:36 | 39.87519 | -75.24479 | 30 ft | 2 kts | 12° |
| 2026-05-06 00:36 | 39.87509 | -75.24481 | 29 ft | 3 kts | 28° |
| 2026-05-06 00:36 | 39.87496 | -75.24495 | 30 ft | 3 kts | 64° |
| 2026-05-06 00:36 | 39.87491 | -75.24517 | 28 ft | 3 kts | 99° |
| 2026-05-06 00:37 | 39.87492 | -75.24525 | 27 ft | 0 kts | 108° |
| 2026-05-06 00:37 | 39.87488 | -75.24508 | 27 ft | 5 kts | 105° |
| 2026-05-06 00:38 | 39.87470 | -75.24486 | 27 ft | 3 kts | 187° |
| 2026-05-06 00:38 | 39.87455 | -75.24500 | 28 ft | 3 kts | 212° |
| 2026-05-06 00:38 | 39.87436 | -75.24520 | 27 ft | 4 kts | 220° |
| 2026-05-06 00:38 | 39.87412 | -75.24547 | 25 ft | 5 kts | 220° |
| 2026-05-06 00:39 | 39.87378 | -75.24571 | 27 ft | 6 kts | 189° |
| 2026-05-06 00:39 | 39.87334 | -75.24563 | 28 ft | 6 kts | 169° |
| 2026-05-06 00:39 | 39.87320 | -75.24559 | 27 ft | 0 kts | 166° |
| 2026-05-06 00:41 | 39.87288 | -75.24537 | 25 ft | 14 kts | 136° |
| 2026-05-06 00:42 | 39.87284 | -75.24416 | 27 ft | 14 kts | 76° |
| 2026-05-06 00:42 | 39.87311 | -75.24293 | 25 ft | 14 kts | 73° |
| 2026-05-06 00:42 | 39.87331 | -75.24200 | 25 ft | 0 kts | 75° |
| 2026-05-06 00:42 | 39.87329 | -75.24196 | 25 ft | 1 kts | 114° |
| 2026-05-06 00:43 | 39.87315 | -75.24193 | 29 ft | 7 kts | 163° |
| 2026-05-06 00:43 | 39.87248 | -75.24163 | 26 ft | 11 kts | 157° |
| 2026-05-06 00:43 | 39.87176 | -75.24118 | 27 ft | 12 kts | 154° |
| 2026-05-06 00:43 | 39.87096 | -75.24080 | 27 ft | 13 kts | 164° |
| 2026-05-06 00:44 | 39.87007 | -75.24049 | 28 ft | 14 kts | 166° |
| 2026-05-06 00:44 | 39.86918 | -75.24002 | 25 ft | 14 kts | 128° |
| 2026-05-06 00:44 | 39.86923 | -75.23877 | 25 ft | 15 kts | 76° |
| 2026-05-06 00:44 | 39.86948 | -75.23737 | 25 ft | 17 kts | 78° |
| 2026-05-06 00:45 | 39.86980 | -75.23583 | 27 ft | 18 kts | 74° |
| 2026-05-06 00:45 | 39.87008 | -75.23443 | 25 ft | 0 kts | 76° |
| 2026-05-06 00:45 | 39.87008 | -75.23438 | 25 ft | 1 kts | 91° |
| 2026-05-06 00:45 | 39.87001 | -75.23430 | 25 ft | 3 kts | 143° |
| 2026-05-06 00:46 | 39.86916 | -75.23414 | 25 ft | 15 kts | 208° |
| 2026-05-06 00:46 | 39.86872 | -75.23567 | 25 ft | 35 kts | 255° |
| 2026-05-06 00:46 | 39.86750 | -75.24167 | 28 ft | 99 kts | 255° |
| 2026-05-06 00:46 | 39.86533 | -75.25248 | 27 ft | 146 kts | 255° |
| 2026-05-06 00:47 | 39.86262 | -75.26648 | 336 ft | 159 kts | 253° |
| 2026-05-06 00:47 | 39.86056 | -75.28002 | 999 ft | 148 kts | 251° |
| 2026-05-06 00:47 | 39.85832 | -75.29318 | 1496 ft | 149 kts | 246° |
| 2026-05-06 00:47 | 39.85563 | -75.30695 | 1738 ft | 166 kts | 247° |
| 2026-05-06 00:48 | 39.85253 | -75.32239 | 1929 ft | 186 kts | 248° |
| 2026-05-06 00:48 | 39.84908 | -75.33974 | 2208 ft | 209 kts | 249° |
| 2026-05-06 00:48 | 39.84663 | -75.35911 | 2761 ft | 230 kts | 259° |
| 2026-05-06 00:48 | 39.84595 | -75.38032 | 3556 ft | 237 kts | 262° |
| 2026-05-06 00:49 | 39.84559 | -75.40191 | 4433 ft | 241 kts | 264° |
| 2026-05-06 00:49 | 39.84532 | -75.42387 | 5303 ft | 243 kts | 264° |
| 2026-05-06 00:49 | 39.84502 | -75.44600 | 6188 ft | 246 kts | 265° |
| 2026-05-06 00:49 | 39.84467 | -75.46841 | 7005 ft | 249 kts | 265° |
| 2026-05-06 00:50 | 39.84429 | -75.49115 | 7821 ft | 253 kts | 266° |
| 2026-05-06 00:50 | 39.84388 | -75.51429 | 8584 ft | 258 kts | 266° |
| 2026-05-06 00:50 | 39.84344 | -75.53784 | 9349 ft | 263 kts | 267° |
| 2026-05-06 00:50 | 39.84299 | -75.56183 | 10077 ft | 268 kts | 268° |
| 2026-05-06 00:51 | 39.84251 | -75.58677 | 10434 ft | 287 kts | 267° |
| 2026-05-06 00:51 | 39.84199 | -75.61361 | 10695 ft | 305 kts | 267° |
| 2026-05-06 00:51 | 39.84145 | -75.64154 | 11268 ft | 311 kts | 267° |
| 2026-05-06 00:51 | 39.84089 | -75.66982 | 11946 ft | 315 kts | 267° |
| 2026-05-06 00:52 | 39.84029 | -75.69843 | 12652 ft | 318 kts | 267° |
| 2026-05-06 00:52 | 39.83968 | -75.72732 | 13331 ft | 321 kts | 266° |
| 2026-05-06 00:52 | 39.83907 | -75.75644 | 13985 ft | 323 kts | 266° |
| 2026-05-06 00:52 | 39.83589 | -75.78533 | 14597 ft | 324 kts | 253° |
| 2026-05-06 00:53 | 39.82753 | -75.81260 | 15194 ft | 326 kts | 241° |
| 2026-05-06 00:53 | 39.81444 | -75.83682 | 15791 ft | 329 kts | 231° |
| 2026-05-06 00:53 | 39.79983 | -75.85992 | 16398 ft | 332 kts | 231° |
| 2026-05-06 00:53 | 39.78516 | -75.88317 | 17010 ft | 334 kts | 232° |
| 2026-05-06 00:54 | 39.77040 | -75.90663 | 17627 ft | 336 kts | 232° |
| 2026-05-06 00:54 | 39.75553 | -75.93025 | 18229 ft | 339 kts | 232° |
| 2026-05-06 00:54 | 39.74053 | -75.95408 | 18763 ft | 341 kts | 231° |
| 2026-05-06 00:54 | 39.72545 | -75.97805 | 19320 ft | 344 kts | 231° |
| 2026-05-06 00:55 | 39.71025 | -76.00219 | 19869 ft | 346 kts | 231° |
| 2026-05-06 00:55 | 39.69496 | -76.02648 | 20434 ft | 348 kts | 231° |
| 2026-05-06 00:55 | 39.67956 | -76.05088 | 20978 ft | 351 kts | 231° |
| 2026-05-06 00:55 | 39.66424 | -76.07514 | 21502 ft | 353 kts | 231° |
| 2026-05-06 00:56 | 39.64862 | -76.09987 | 22033 ft | 356 kts | 231° |
| 2026-05-06 00:56 | 39.63287 | -76.12471 | 22559 ft | 358 kts | 231° |
| 2026-05-06 00:56 | 39.61698 | -76.14974 | 23075 ft | 361 kts | 231° |
| 2026-05-06 00:56 | 39.60095 | -76.17494 | 23575 ft | 363 kts | 231° |
| 2026-05-06 00:57 | 39.58476 | -76.20022 | 23985 ft | 366 kts | 231° |
| 2026-05-06 00:57 | 39.56833 | -76.22559 | 24380 ft | 369 kts | 231° |
| 2026-05-06 00:57 | 39.55166 | -76.25113 | 24755 ft | 372 kts | 231° |
| 2026-05-06 00:57 | 39.53489 | -76.27685 | 25149 ft | 375 kts | 231° |
| 2026-05-06 00:58 | 39.51802 | -76.30275 | 25535 ft | 378 kts | 231° |
| 2026-05-06 00:58 | 39.50099 | -76.32884 | 25903 ft | 381 kts | 231° |
| 2026-05-06 00:58 | 39.48386 | -76.35512 | 26263 ft | 384 kts | 232° |
| 2026-05-06 00:58 | 39.46658 | -76.38167 | 26623 ft | 386 kts | 231° |
| 2026-05-06 00:59 | 39.44862 | -76.40770 | 26975 ft | 390 kts | 229° |
| 2026-05-06 00:59 | 39.42977 | -76.43310 | 27322 ft | 393 kts | 228° |
| 2026-05-06 00:59 | 39.41029 | -76.45820 | 27655 ft | 396 kts | 227° |
| 2026-05-06 00:59 | 39.39057 | -76.48325 | 27991 ft | 399 kts | 227° |
| 2026-05-06 01:00 | 39.37070 | -76.50845 | 28329 ft | 401 kts | 227° |
| 2026-05-06 01:00 | 39.35082 | -76.53386 | 28660 ft | 404 kts | 228° |
| 2026-05-06 01:00 | 39.33085 | -76.55963 | 28988 ft | 406 kts | 228° |
| 2026-05-06 01:00 | 39.31087 | -76.58562 | 29321 ft | 409 kts | 229° |
| 2026-05-06 01:01 | 39.29085 | -76.61180 | 29605 ft | 412 kts | 229° |
| 2026-05-06 01:01 | 39.27067 | -76.63821 | 29924 ft | 414 kts | 229° |
| 2026-05-06 01:01 | 39.25035 | -76.66480 | 30203 ft | 417 kts | 229° |
| 2026-05-06 01:01 | 39.22994 | -76.69142 | 30488 ft | 419 kts | 229° |
| 2026-05-06 01:02 | 39.20944 | -76.71812 | 30799 ft | 420 kts | 229° |
| 2026-05-06 01:02 | 39.18880 | -76.74483 | 31211 ft | 419 kts | 229° |
| 2026-05-06 01:02 | 39.16826 | -76.77133 | 31597 ft | 418 kts | 229° |
| 2026-05-06 01:02 | 39.14774 | -76.79776 | 32041 ft | 417 kts | 229° |
| 2026-05-06 01:03 | 39.12726 | -76.82418 | 32438 ft | 416 kts | 229° |
| 2026-05-06 01:03 | 39.10679 | -76.85060 | 32831 ft | 416 kts | 230° |
| 2026-05-06 01:03 | 39.08636 | -76.87694 | 33225 ft | 416 kts | 230° |
| 2026-05-06 01:03 | 39.06599 | -76.90326 | 33598 ft | 415 kts | 230° |
| 2026-05-06 01:04 | 39.04532 | -76.92941 | 33877 ft | 417 kts | 229° |
| 2026-05-06 01:04 | 39.00344 | -76.98028 | 33920 ft | 412 kts | 228° |
| 2026-05-06 01:05 | 38.96152 | -77.03039 | 33925 ft | 412 kts | 228° |
| 2026-05-06 01:05 | 38.92001 | -77.08043 | 33917 ft | 412 kts | 229° |
| 2026-05-06 01:06 | 38.87825 | -77.13085 | 33913 ft | 412 kts | 229° |
| 2026-05-06 01:06 | 38.83623 | -77.18169 | 33911 ft | 413 kts | 229° |
| 2026-05-06 01:07 | 38.79466 | -77.23177 | 33901 ft | 413 kts | 229° |
| 2026-05-06 01:07 | 38.75267 | -77.28213 | 33899 ft | 413 kts | 229° |
| 2026-05-06 01:08 | 38.71068 | -77.33235 | 33899 ft | 413 kts | 229° |
| 2026-05-06 01:08 | 38.66864 | -77.38259 | 33920 ft | 414 kts | 229° |
| 2026-05-06 01:09 | 38.62656 | -77.43285 | 33917 ft | 414 kts | 230° |
| 2026-05-06 01:09 | 38.58445 | -77.48311 | 33916 ft | 414 kts | 230° |
| 2026-05-06 01:10 | 38.54226 | -77.53344 | 33915 ft | 415 kts | 230° |
| 2026-05-06 01:10 | 38.49997 | -77.58362 | 33912 ft | 415 kts | 230° |
| 2026-05-06 01:11 | 38.45755 | -77.63386 | 33913 ft | 416 kts | 230° |
| 2026-05-06 01:11 | 38.41515 | -77.68418 | 33908 ft | 417 kts | 230° |
| 2026-05-06 01:12 | 38.37264 | -77.73445 | 33920 ft | 417 kts | 230° |
| 2026-05-06 01:12 | 38.33005 | -77.78476 | 33917 ft | 418 kts | 231° |
| 2026-05-06 01:13 | 38.28739 | -77.83507 | 33915 ft | 418 kts | 231° |
| 2026-05-06 01:13 | 38.24462 | -77.88535 | 33911 ft | 419 kts | 231° |
| 2026-05-06 01:14 | 38.18032 | -77.96084 | 33923 ft | 420 kts | 231° |
| 2026-05-06 01:14 | 38.14468 | -78.00270 | 33923 ft | 420 kts | 231° |
| 2026-05-06 01:15 | 38.10173 | -78.05294 | 33920 ft | 420 kts | 231° |
| 2026-05-06 01:15 | 38.05867 | -78.10319 | 33918 ft | 421 kts | 231° |
| 2026-05-06 01:16 | 38.01556 | -78.15347 | 33921 ft | 421 kts | 231° |
| 2026-05-06 01:16 | 37.97235 | -78.20372 | 33921 ft | 421 kts | 232° |
| 2026-05-06 01:17 | 37.92912 | -78.25391 | 33918 ft | 422 kts | 232° |
| 2026-05-06 01:17 | 37.88587 | -78.30412 | 33922 ft | 422 kts | 232° |
| 2026-05-06 01:18 | 37.84259 | -78.35423 | 33925 ft | 422 kts | 232° |
| 2026-05-06 01:18 | 37.79927 | -78.40435 | 33926 ft | 422 kts | 232° |
| 2026-05-06 01:19 | 37.75596 | -78.45440 | 33933 ft | 422 kts | 232° |
| 2026-05-06 01:19 | 37.71256 | -78.50444 | 33931 ft | 422 kts | 232° |
| 2026-05-06 01:20 | 37.66917 | -78.55436 | 33938 ft | 422 kts | 232° |
| 2026-05-06 01:20 | 37.62571 | -78.60424 | 33942 ft | 422 kts | 232° |
| 2026-05-06 01:21 | 37.58233 | -78.65399 | 33945 ft | 422 kts | 232° |
| 2026-05-06 01:21 | 37.53895 | -78.70375 | 33949 ft | 422 kts | 232° |
| 2026-05-06 01:22 | 37.49550 | -78.75344 | 33950 ft | 422 kts | 232° |
| 2026-05-06 01:22 | 37.45208 | -78.80297 | 33956 ft | 421 kts | 232° |
| 2026-05-06 01:23 | 37.40862 | -78.85240 | 33964 ft | 421 kts | 232° |
| 2026-05-06 01:23 | 37.36522 | -78.90177 | 33967 ft | 421 kts | 232° |
| 2026-05-06 01:24 | 37.32181 | -78.95109 | 33969 ft | 420 kts | 232° |
| 2026-05-06 01:24 | 37.27848 | -79.00037 | 33970 ft | 420 kts | 232° |
| 2026-05-06 01:25 | 37.23510 | -79.04951 | 33970 ft | 420 kts | 232° |
| 2026-05-06 01:25 | 37.19168 | -79.09848 | 33969 ft | 420 kts | 232° |
| 2026-05-06 01:26 | 37.14835 | -79.14728 | 33758 ft | 414 kts | 232° |
| 2026-05-06 01:26 | 37.12706 | -79.17115 | 33484 ft | 407 kts | 232° |
| 2026-05-06 01:26 | 37.10612 | -79.19463 | 33218 ft | 402 kts | 232° |
| 2026-05-06 01:27 | 37.08537 | -79.21795 | 32946 ft | 400 kts | 232° |
| 2026-05-06 01:27 | 37.06475 | -79.24120 | 32690 ft | 397 kts | 232° |
| 2026-05-06 01:27 | 37.04430 | -79.26428 | 32429 ft | 395 kts | 231° |
| 2026-05-06 01:27 | 37.02392 | -79.28726 | 32173 ft | 393 kts | 231° |
| 2026-05-06 01:28 | 37.00361 | -79.31007 | 31917 ft | 392 kts | 231° |
| 2026-05-06 01:28 | 36.98337 | -79.33276 | 31660 ft | 390 kts | 231° |
| 2026-05-06 01:28 | 36.96320 | -79.35535 | 31416 ft | 388 kts | 230° |
| 2026-05-06 01:28 | 36.94316 | -79.37781 | 31169 ft | 386 kts | 230° |
| 2026-05-06 01:29 | 36.92323 | -79.40013 | 30927 ft | 384 kts | 230° |
| 2026-05-06 01:29 | 36.90331 | -79.42241 | 30687 ft | 383 kts | 230° |
| 2026-05-06 01:29 | 36.88347 | -79.44458 | 30452 ft | 381 kts | 230° |
| 2026-05-06 01:29 | 36.86375 | -79.46660 | 30213 ft | 379 kts | 229° |
| 2026-05-06 01:30 | 36.84411 | -79.48847 | 29967 ft | 378 kts | 229° |
| 2026-05-06 01:30 | 36.82478 | -79.50997 | 29691 ft | 376 kts | 229° |
| 2026-05-06 01:30 | 36.80530 | -79.53167 | 29419 ft | 374 kts | 229° |
| 2026-05-06 01:30 | 36.78594 | -79.55322 | 29137 ft | 372 kts | 229° |
| 2026-05-06 01:31 | 36.76669 | -79.57462 | 28867 ft | 370 kts | 229° |
| 2026-05-06 01:31 | 36.74751 | -79.59592 | 28599 ft | 368 kts | 229° |
| 2026-05-06 01:31 | 36.72837 | -79.61716 | 28331 ft | 367 kts | 229° |
| 2026-05-06 01:31 | 36.70940 | -79.63822 | 28065 ft | 365 kts | 229° |
| 2026-05-06 01:32 | 36.69052 | -79.65921 | 27806 ft | 363 kts | 229° |
| 2026-05-06 01:32 | 36.67174 | -79.68008 | 27550 ft | 361 kts | 229° |
| 2026-05-06 01:32 | 36.65299 | -79.70088 | 27301 ft | 360 kts | 229° |
| 2026-05-06 01:32 | 36.63434 | -79.72154 | 27071 ft | 358 kts | 229° |
| 2026-05-06 01:33 | 36.61579 | -79.74206 | 26987 ft | 356 kts | 229° |
| 2026-05-06 01:33 | 36.59723 | -79.76262 | 27003 ft | 357 kts | 229° |
| 2026-05-06 01:33 | 36.57863 | -79.78316 | 27007 ft | 357 kts | 229° |
| 2026-05-06 01:33 | 36.56003 | -79.80363 | 27011 ft | 357 kts | 229° |
| 2026-05-06 01:34 | 36.54139 | -79.82414 | 27014 ft | 358 kts | 229° |
| 2026-05-06 01:34 | 36.52275 | -79.84463 | 27016 ft | 358 kts | 229° |
| 2026-05-06 01:34 | 36.50410 | -79.86513 | 27014 ft | 358 kts | 228° |
| 2026-05-06 01:34 | 36.48387 | -79.88379 | 27017 ft | 364 kts | 221° |
| 2026-05-06 01:35 | 36.46279 | -79.90121 | 27014 ft | 364 kts | 221° |
| 2026-05-06 01:35 | 36.44169 | -79.91870 | 27005 ft | 364 kts | 221° |
| 2026-05-06 01:35 | 36.42057 | -79.93623 | 27018 ft | 365 kts | 221° |
| 2026-05-06 01:35 | 36.39977 | -79.95351 | 26764 ft | 366 kts | 221° |
| 2026-05-06 01:36 | 36.37836 | -79.97133 | 25723 ft | 374 kts | 221° |
| 2026-05-06 01:36 | 36.35663 | -79.98934 | 24891 ft | 375 kts | 220° |
| 2026-05-06 01:36 | 36.33499 | -80.00720 | 24202 ft | 372 kts | 220° |
| 2026-05-06 01:36 | 36.31372 | -80.02470 | 23836 ft | 359 kts | 220° |
| 2026-05-06 01:37 | 36.29319 | -80.04151 | 23314 ft | 350 kts | 220° |
| 2026-05-06 01:37 | 36.27308 | -80.05799 | 22677 ft | 343 kts | 220° |
| 2026-05-06 01:37 | 36.25340 | -80.07416 | 22184 ft | 335 kts | 220° |
| 2026-05-06 01:37 | 36.23401 | -80.09016 | 21790 ft | 333 kts | 220° |
| 2026-05-06 01:38 | 36.21479 | -80.10609 | 21384 ft | 331 kts | 220° |
| 2026-05-06 01:38 | 36.19570 | -80.12188 | 20973 ft | 329 kts | 220° |
| 2026-05-06 01:38 | 36.17671 | -80.13759 | 20571 ft | 327 kts | 220° |
| 2026-05-06 01:38 | 36.15794 | -80.15320 | 20184 ft | 324 kts | 220° |
| 2026-05-06 01:39 | 36.13928 | -80.16871 | 19793 ft | 322 kts | 220° |
| 2026-05-06 01:39 | 36.12057 | -80.18411 | 19437 ft | 322 kts | 219° |
| 2026-05-06 01:39 | 36.10199 | -80.19929 | 19200 ft | 319 kts | 219° |
| 2026-05-06 01:39 | 36.08351 | -80.21435 | 18970 ft | 318 kts | 219° |
| 2026-05-06 01:40 | 36.06508 | -80.22941 | 18732 ft | 316 kts | 219° |
| 2026-05-06 01:40 | 36.04688 | -80.24427 | 18481 ft | 311 kts | 219° |
| 2026-05-06 01:40 | 36.02886 | -80.25898 | 18119 ft | 310 kts | 219° |
| 2026-05-06 01:40 | 36.01098 | -80.27361 | 17804 ft | 306 kts | 219° |
| 2026-05-06 01:41 | 35.99325 | -80.28816 | 17371 ft | 306 kts | 219° |
| 2026-05-06 01:41 | 35.97551 | -80.30267 | 16997 ft | 305 kts | 218° |
| 2026-05-06 01:41 | 35.95774 | -80.31703 | 16641 ft | 305 kts | 218° |
| 2026-05-06 01:41 | 35.93999 | -80.33146 | 16202 ft | 306 kts | 219° |
| 2026-05-06 01:42 | 35.92230 | -80.34591 | 15836 ft | 304 kts | 218° |
| 2026-05-06 01:42 | 35.90470 | -80.36029 | 15487 ft | 302 kts | 218° |
| 2026-05-06 01:42 | 35.88722 | -80.37452 | 15125 ft | 301 kts | 218° |
| 2026-05-06 01:42 | 35.87001 | -80.38851 | 14779 ft | 299 kts | 218° |
| 2026-05-06 01:43 | 35.85245 | -80.40277 | 14423 ft | 298 kts | 218° |
| 2026-05-06 01:43 | 35.83522 | -80.41681 | 14073 ft | 296 kts | 218° |
| 2026-05-06 01:43 | 35.81876 | -80.43118 | 13743 ft | 293 kts | 221° |
| 2026-05-06 01:43 | 35.80271 | -80.44643 | 13407 ft | 289 kts | 223° |
| 2026-05-06 01:44 | 35.78675 | -80.46208 | 13022 ft | 288 kts | 223° |
| 2026-05-06 01:44 | 35.77112 | -80.47754 | 12647 ft | 287 kts | 223° |
| 2026-05-06 01:44 | 35.75562 | -80.49264 | 12252 ft | 288 kts | 220° |
| 2026-05-06 01:44 | 35.73801 | -80.50456 | 11829 ft | 294 kts | 208° |
| 2026-05-06 01:45 | 35.72025 | -80.51644 | 11516 ft | 283 kts | 225° |
| 2026-05-06 01:45 | 35.70652 | -80.53321 | 11281 ft | 275 kts | 231° |
| 2026-05-06 01:45 | 35.69366 | -80.55053 | 10972 ft | 273 kts | 231° |
| 2026-05-06 01:45 | 35.68097 | -80.56780 | 10634 ft | 272 kts | 231° |
| 2026-05-06 01:46 | 35.66835 | -80.58507 | 10294 ft | 271 kts | 232° |
| 2026-05-06 01:46 | 35.65575 | -80.60233 | 9976 ft | 270 kts | 231° |
| 2026-05-06 01:46 | 35.64326 | -80.61950 | 9630 ft | 269 kts | 231° |
| 2026-05-06 01:46 | 35.63090 | -80.63668 | 9288 ft | 267 kts | 231° |
| 2026-05-06 01:47 | 35.61877 | -80.65387 | 8967 ft | 265 kts | 231° |
| 2026-05-06 01:47 | 35.60685 | -80.67100 | 8641 ft | 263 kts | 231° |
| 2026-05-06 01:47 | 35.59511 | -80.68813 | 8316 ft | 261 kts | 231° |
| 2026-05-06 01:47 | 35.58355 | -80.70525 | 7995 ft | 259 kts | 231° |
| 2026-05-06 01:48 | 35.57214 | -80.72236 | 7685 ft | 257 kts | 231° |
| 2026-05-06 01:48 | 35.56095 | -80.73942 | 7402 ft | 256 kts | 232° |
| 2026-05-06 01:48 | 35.54994 | -80.75647 | 7112 ft | 254 kts | 231° |
| 2026-05-06 01:48 | 35.53911 | -80.77351 | 6809 ft | 253 kts | 231° |
| 2026-05-06 01:49 | 35.52846 | -80.79058 | 6514 ft | 251 kts | 232° |
| 2026-05-06 01:49 | 35.51799 | -80.80763 | 6193 ft | 249 kts | 232° |
| 2026-05-06 01:49 | 35.50874 | -80.82282 | 5886 ft | 249 kts | 232° |
| 2026-05-06 01:49 | 35.49842 | -80.83986 | 5571 ft | 248 kts | 232° |
| 2026-05-06 01:50 | 35.48821 | -80.85691 | 5248 ft | 248 kts | 232° |
| 2026-05-06 01:50 | 35.47772 | -80.87364 | 4922 ft | 246 kts | 226° |
| 2026-05-06 01:50 | 35.46558 | -80.88846 | 4595 ft | 245 kts | 222° |
| 2026-05-06 01:50 | 35.45315 | -80.90273 | 4285 ft | 244 kts | 218° |
| 2026-05-06 01:51 | 35.43857 | -80.91291 | 4048 ft | 241 kts | 203° |
| 2026-05-06 01:51 | 35.42304 | -80.92085 | 4016 ft | 243 kts | 202° |
| 2026-05-06 01:51 | 35.40742 | -80.92858 | 4018 ft | 242 kts | 202° |
| 2026-05-06 01:51 | 35.39141 | -80.93536 | 4009 ft | 244 kts | 194° |
| 2026-05-06 01:52 | 35.37482 | -80.93976 | 3984 ft | 244 kts | 192° |
| 2026-05-06 01:52 | 35.35793 | -80.94267 | 3587 ft | 247 kts | 187° |
| 2026-05-06 01:52 | 35.34040 | -80.94387 | 2987 ft | 255 kts | 182° |
| 2026-05-06 01:52 | 35.32342 | -80.94406 | 2636 ft | 234 kts | 180° |
| 2026-05-06 01:53 | 35.30776 | -80.94344 | 2286 ft | 213 kts | 178° |
| 2026-05-06 01:53 | 35.29386 | -80.94241 | 2122 ft | 192 kts | 177° |
| 2026-05-06 01:53 | 35.28095 | -80.94133 | 1859 ft | 182 kts | 178° |
| 2026-05-06 01:53 | 35.26916 | -80.94042 | 1646 ft | 157 kts | 175° |
| 2026-05-06 01:54 | 35.25875 | -80.93922 | 1603 ft | 143 kts | 178° |
| 2026-05-06 01:54 | 35.24885 | -80.93839 | 1361 ft | 142 kts | 176° |
| 2026-05-06 01:54 | 35.23912 | -80.93740 | 1083 ft | 139 kts | 177° |
| 2026-05-06 01:54 | 35.22956 | -80.93671 | 911 ft | 139 kts | 177° |
| 2026-05-06 01:55 | 35.22001 | -80.93579 | 756 ft | 131 kts | 176° |
| 2026-05-06 01:55 | 35.21286 | -80.93515 | 742 ft | 62 kts | 175° |
| 2026-05-06 01:55 | 35.21054 | -80.93500 | 741 ft | 24 kts | 182° |
| 2026-05-06 01:55 | 35.20943 | -80.93544 | 740 ft | 10 kts | 233° |
| 2026-05-06 01:56 | 35.20965 | -80.93618 | 740 ft | 11 kts | 333° |
| 2026-05-06 01:56 | 35.21045 | -80.93631 | 741 ft | 12 kts | 353° |
| 2026-05-06 01:56 | 35.21129 | -80.93637 | 741 ft | 12 kts | 358° |
| 2026-05-06 01:56 | 35.21212 | -80.93644 | 742 ft | 12 kts | 355° |
| 2026-05-06 01:57 | 35.21292 | -80.93654 | 743 ft | 11 kts | 354° |
| 2026-05-06 01:57 | 35.21369 | -80.93665 | 744 ft | 11 kts | 353° |
| 2026-05-06 01:57 | 35.21445 | -80.93666 | 744 ft | 11 kts | 1° |
| 2026-05-06 01:57 | 35.21521 | -80.93666 | 744 ft | 11 kts | 355° |
| 2026-05-06 01:58 | 35.21588 | -80.93709 | 744 ft | 11 kts | 315° |
| 2026-05-06 01:58 | 35.21644 | -80.93788 | 743 ft | 13 kts | 311° |
| 2026-05-06 01:58 | 35.21708 | -80.93874 | 741 ft | 14 kts | 316° |
| 2026-05-06 01:58 | 35.21770 | -80.93946 | 745 ft | 10 kts | 301° |
| 2026-05-06 01:59 | 35.21747 | -80.94023 | 741 ft | 11 kts | 228° |
| 2026-05-06 01:59 | 35.21692 | -80.94100 | 739 ft | 13 kts | 229° |
| 2026-05-06 01:59 | 35.21634 | -80.94197 | 737 ft | 15 kts | 253° |
| 2026-05-06 01:59 | 35.21640 | -80.94332 | 736 ft | 17 kts | 277° |
| 2026-05-06 02:00 | 35.21700 | -80.94386 | 736 ft | 1 kts | 359° |
| 2026-05-06 02:00 | 35.21701 | -80.94386 | 736 ft | 2 kts | 359° |
| 2026-05-06 02:01 | 35.21756 | -80.94387 | 737 ft | 10 kts | 359° |
| 2026-05-06 02:01 | 35.21792 | -80.94390 | 738 ft | 2 kts | 356° |
| 2026-05-06 02:01 | 35.21864 | -80.94396 | 739 ft | 15 kts | 347° |
| 2026-05-06 02:01 | 35.21873 | -80.94425 | 739 ft | 4 kts | 212° |
| 2026-05-06 02:02 | 35.21875 | -80.94464 | 739 ft | 7 kts | 293° |
| 2026-05-06 02:02 | 35.21879 | -80.94474 | 739 ft | 0 kts | 294° |